23 mai 2022

Temps Code Temps Temp. Vue Des nuages Vent METAR/SPECI
17:20
V
23 °C 10 km+ 18.000 ft 130°   130° 13 23 kt METAR ETMN 231520Z 13013G23KT 9999 FEW150 BKN180 BKN230 23/09 Q0999 BLU BLU+ TEMPO BLU
16:20
V
23 °C 10 km+ 25.000 ft 120°   120° 15 kt METAR ETMN 231420Z 12015KT 9999 FEW100 SCT180 BKN250 23/07 Q1000 BLU+BLU+ TEMPO BLU
15:20
V
23 °C 10 km+ - 130°   130° 10 kt METAR ETMN 231320Z 13010KT 9999 FEW110 SCT300 23/08 Q1001 BLU+BLU+
14:20
V
23 °C 10 km+ 30.000 ft 140°   140° 13 kt METAR ETMN 231220Z 14013KT 9999 FEW110 BKN300 23/08 Q1002 BLU+BLU+
13:20
V
22 °C 10 km+ 21.000 ft 140°   140° 12 kt METAR ETMN 231120Z 14012KT 9999 FEW110 BKN210 22/09 Q1003 BLU+BLU+
12:20
V
21 °C 10 km+ 22.000 ft 130°   130° 12 kt METAR ETMN 231020Z 13012KT 9999 FEW120 BKN220 21/09 Q1004 BLU+BLU+
11:20
V
20 °C 10 km+ 22.000 ft 140°   140° 12 kt METAR ETMN 230920Z 14012KT 9999 FEW120 BKN220 20/09 Q1005 BLU+BLU+
10:20
V
18 °C 10 km+ 22.000 ft 120°   120° 11 kt METAR ETMN 230820Z 12011KT 9999 FEW120 BKN220 18/08 Q1006 BLU+BLU+
09:20
V
16 °C 10 km+ 23.000 ft 120°   120° 10 kt METAR ETMN 230720Z 12010KT 9999 FEW140 BKN230 16/08 Q1006 BLU+BLU+
08:20
V
15 °C 10 km+ - 120°   120° 9 kt METAR ETMN 230620Z 12009KT 9999 FEW080 SCT280 15/08 Q1007 BLU+BLU+ BECMG BLU
07:20
V
12 °C 10 km+ - 110°   110° 7 kt METAR ETMN 230520Z 11007KT 9999 SCT100 12/08 Q1008 BLU+BLU+ BECMG BLU
06:20
V
11 °C 10 km+ - 110°   110° 6 kt METAR ETMN 230420Z 11006KT 9999 SCT100 11/08 Q1009 BLU+BLU+
05:20
V
11 °C 10 km+ - 110°   110° 6 kt METAR ETMN 230320Z 11006KT 9999 SCT100 SCT280 11/08 Q1009 BLU+
04:20
V
11 °C 10 km+ 10.000 ft 100°   100° 5 kt METAR ETMN 230220Z 10005KT 9999 BKN100 11/08 Q1010 BLU
03:20
V
12 °C 10 km+ 10.000 ft 110°   110° 5 kt METAR ETMN 230120Z 11005KT 9999 BKN100 12/08 Q1011 BLU
02:20
V
12 °C 10 km+ 10.000 ft 100°   100° 4 kt METAR ETMN 230020Z 10004KT 9999 BKN100 12/07 Q1011 BLU
01:20
V
11 °C 10 km+ 10.000 ft 100°   100° 4 kt METAR ETMN 222320Z 10004KT 9999 BKN100 11/08 Q1012 BLU
00:20
V
11 °C 10 km+ 29.000 ft 090°   090° 5 kt METAR ETMN 222220Z 09005KT 9999 BKN290 11/07 Q1012 BLU+

22 mai 2022

Temps Code Temps Temp. Vue Des nuages Vent METAR/SPECI
23:20
V
12 °C 10 km+ 29.000 ft 110°   110° 5 kt METAR ETMN 222120Z 11005KT 9999 BKN290 12/08 Q1013 BLU+
22:20
V
12 °C 10 km+ 29.000 ft 110°   110° 4 kt METAR ETMN 222020Z 11004KT 9999 FEW100 BKN290 12/07 Q1013 BLU+
21:20
V
13 °C 10 km+ 27.000 ft 080°   080° 4 kt METAR ETMN 221920Z 08004KT 9999 FEW100 BKN270 13/07 Q1013 BLU+
20:20
V
15 °C 10 km+ 26.000 ft 070°   070° 5 kt METAR ETMN 221820Z 07005KT 9999 FEW035 SCT230 BKN260 15/06 Q1014 BLU+
19:20
V
15 °C 10 km+ 22.000 ft 070°   070° 5 kt METAR ETMN 221720Z 07005KT 9999 FEW040 SCT200 BKN220 15/05 Q1014 BLU+
18:20
V
16 °C 10 km+ 23.000 ft 060°   060° 5 kt METAR ETMN 221620Z 06005KT 9999 FEW040 SCT190 BKN230 16/06 Q1014 BLU+
17:20
V
16 °C 10 km+ 29.000 ft 020°   020° 6 kt METAR ETMN 221520Z 02006KT 9999 FEW040 BKN290 16/07 Q1015 BLU+
16:20
V
17 °C 10 km+ - 320°   320° 4 kt METAR ETMN 221420Z 32004KT 9999 FEW036 SCT230 17/05 Q1015 BLU+
15:20
V
17 °C 10 km+ - 290°   290° 6 kt METAR ETMN 221320Z 29006KT 9999 FEW035 SCT230 17/07 Q1016 BLU+
14:20
V
17 °C 10 km+ - 290°   290° 5 kt METAR ETMN 221220Z 29005KT 9999 FEW035 SCT230 17/07 Q1016 BLU+
13:20
V
15 °C 10 km+ - 300°   300° 6 kt METAR ETMN 221120Z 30006KT 9999 FEW032 15/07 Q1016 BLU+
12:20
V
15 °C 10 km+ - 310°   310° 6 kt METAR ETMN 221020Z 31006KT 9999 FEW029 15/07 Q1017 BLU+
11:20
V
15 °C 10 km+ - 300°   300° 6 kt METAR ETMN 220920Z 30006KT 9999 FEW025 15/07 Q1017 BLU+
10:20
V
13 °C 10 km+ - 290°   290° 6 kt METAR ETMN 220820Z 29006KT 9999 SCT021 13/07 Q1017 BLU+
09:20
V
13 °C 10 km+ - 290°   290° 6 kt METAR ETMN 220720Z 29006KT 9999 SCT022 13/08 Q1017 BLU+
08:20
V
12 °C 10 km+ - 300°   300° 8 kt METAR ETMN 220620Z 30008KT 9999 FEW020 12/08 Q1017 BLU+
07:20
V
12 °C 10 km+ - 310°   310° 6 kt METAR ETMN 220520Z 31006KT 9999 SCT018 SCT320 12/08 Q1017 BLU+
06:20
V
11 °C 10 km+ 11.000 ft 280°   280° 4 kt METAR ETMN 220420Z 28004KT 9999 SCT018 BKN110 BKN220 11/09 Q1017 BLU
05:20
V
10 °C 10 km+ 12.000 ft 280°   280° 5 kt METAR ETMN 220320Z 28005KT 9999 SCT018 BKN120 10/08 Q1017 BLU
04:20
V
11 °C 10 km+ - 290°   290° 5 kt METAR ETMN 220220Z 29005KT 9999 FEW010 SCT140 11/09 Q1017 BLU+
03:32
V
10 °C 10 km+ - 290°   290° 8 kt METAR ETMN 220132Z 29008KT 9999 SCT021 SCT140 10/08 Q1017 BLU+
03:20
M
11 °C 10 km+ 2.100 ft 290°   290° 8 kt METAR ETMN 220120Z 29008KT 9999 BKN021 BKN140 11/08 Q1017 WHT
02:20
V
11 °C 10 km+ 12.000 ft 290°   290° 7 kt METAR ETMN 220020Z 29007KT 9999 FEW020 BKN120 11/09 Q1018 BLU
01:20
V
11 °C 10 km+ 13.000 ft 300°   300° 8 kt METAR ETMN 212320Z 30008KT 9999 FEW020 BKN130 11/09 Q1018 BLU
00:20
V
11 °C 10 km+ 13.000 ft 300°   300° 8 kt METAR ETMN 212220Z 30008KT 9999 SCT020 BKN130 11/09 Q1018 BLU

21 mai 2022

Temps Code Temps Temp. Vue Des nuages Vent METAR/SPECI
23:20
V
11 °C 10 km+ - 300°   300° 10 kt METAR ETMN 212120Z 30010KT 9999 FEW016 SCT130 11/08 Q1019 BLU+
22:20
V
12 °C 10 km+ - 300°   300° 11 kt METAR ETMN 212020Z 30011KT 9999 SCT020 SCT150 12/08 Q1019 BLU+
21:20
V
12 °C 10 km+ - 290°   290° 12 kt METAR ETMN 211920Z 29012KT 9999 SCT018 12/09 Q1018 BLU+
20:20
V
12 °C 10 km+ - 290°   290° 13 kt METAR ETMN 211820Z 29013KT 9999 SCT014 12/09 Q1018 BLU+
19:20
V
13 °C 10 km+ - 290°   290° 18 kt METAR ETMN 211720Z 29018KT 9999 SCT014 13/09 Q1018 BLU+
18:20
V
14 °C 10 km+ - 290°   290° 18 kt METAR ETMN 211620Z 29018KT 9999 FEW015 14/10 Q1018 BLU+
17:20
V
14 °C 10 km+ - 290°   290° 19 kt METAR ETMN 211520Z 29019KT 9999 FEW015 14/09 Q1018 BLU+
Données plus anciennes

Télécharge notre application

Un accès facile à toute la météo aéronautique sur ton téléphone portable et ta tablette.
Avec de nombreuses fonctionnalités non disponibles sur le site Web, comme la prise en charge hors ligne et une liste personnelle d'aéroports.

Nous et des tiers suivons ton comportement sur Internet sur notre site Web à l'aide de cookies. Si tu continues, nous supposons que tu acceptes notre politique en matière de cookies. Apprendre plus